sensor_id;sensor_type;location;lat;lon;timestamp;pressure;altitude;pressure_sealevel;temperature;humidity
77212;BME280;66206;0.000;0.000;2023-06-26T00:01:05;97879.04;;;28.86;26.61
77212;BME280;66206;0.000;0.000;2023-06-26T00:03:31;97877.63;;;28.91;26.67
77212;BME280;66206;0.000;0.000;2023-06-26T00:05:58;97877.12;;;28.67;26.70
77212;BME280;66206;0.000;0.000;2023-06-26T00:08:24;97875.20;;;29.05;26.59
77212;BME280;66206;0.000;0.000;2023-06-26T00:10:51;97875.24;;;28.98;26.58
77212;BME280;66206;0.000;0.000;2023-06-26T00:13:17;97873.81;;;28.99;26.62
77212;BME280;66206;0.000;0.000;2023-06-26T00:15:44;97872.50;;;28.90;26.61
77212;BME280;66206;0.000;0.000;2023-06-26T00:18:10;97872.01;;;28.93;26.67
77212;BME280;66206;0.000;0.000;2023-06-26T00:20:37;97870.80;;;28.90;26.62
77212;BME280;66206;0.000;0.000;2023-06-26T00:23:04;97871.25;;;29.05;26.55
77212;BME280;66206;0.000;0.000;2023-06-26T00:25:30;97872.23;;;28.98;26.64
77212;BME280;66206;0.000;0.000;2023-06-26T00:27:57;97870.17;;;28.98;26.58
77212;BME280;66206;0.000;0.000;2023-06-26T00:30:23;97868.85;;;28.89;26.62
77212;BME280;66206;0.000;0.000;2023-06-26T00:32:50;97868.52;;;28.84;26.61
77212;BME280;66206;0.000;0.000;2023-06-26T00:35:17;97868.26;;;28.86;26.55
77212;BME280;66206;0.000;0.000;2023-06-26T00:37:43;97870.35;;;28.68;26.46
77212;BME280;66206;0.000;0.000;2023-06-26T00:40:10;97870.62;;;28.82;26.49
77212;BME280;66206;0.000;0.000;2023-06-26T00:42:37;97870.67;;;28.85;26.43
77212;BME280;66206;0.000;0.000;2023-06-26T00:45:04;97870.04;;;28.68;26.39
77212;BME280;66206;0.000;0.000;2023-06-26T00:47:30;97866.24;;;28.70;26.43
77212;BME280;66206;0.000;0.000;2023-06-26T00:49:57;97868.59;;;28.59;26.45
77212;BME280;66206;0.000;0.000;2023-06-26T00:52:24;97869.90;;;28.85;26.38
77212;BME280;66206;0.000;0.000;2023-06-26T00:54:50;97867.59;;;28.72;26.39
77212;BME280;66206;0.000;0.000;2023-06-26T00:57:18;97867.95;;;28.70;26.30
77212;BME280;66206;0.000;0.000;2023-06-26T00:59:44;97868.11;;;28.71;26.38
77212;BME280;66206;0.000;0.000;2023-06-26T01:02:11;97866.96;;;28.64;26.35
77212;BME280;66206;0.000;0.000;2023-06-26T01:04:37;97866.88;;;28.72;26.26
77212;BME280;66206;0.000;0.000;2023-06-26T01:07:04;97865.38;;;28.88;26.24
77212;BME280;66206;0.000;0.000;2023-06-26T01:09:32;97862.15;;;28.69;26.32
77212;BME280;66206;0.000;0.000;2023-06-26T01:11:58;97861.31;;;28.75;26.31
77212;BME280;66206;0.000;0.000;2023-06-26T01:14:25;97862.58;;;28.77;26.24
77212;BME280;66206;0.000;0.000;2023-06-26T01:16:52;97865.42;;;28.94;26.15
77212;BME280;66206;0.000;0.000;2023-06-26T01:19:19;97866.53;;;28.83;26.15
77212;BME280;66206;0.000;0.000;2023-06-26T01:21:46;97866.96;;;28.74;26.09
77212;BME280;66206;0.000;0.000;2023-06-26T01:24:16;97864.66;;;28.81;26.12
77212;BME280;66206;0.000;0.000;2023-06-26T01:26:43;97864.86;;;28.72;26.00
77212;BME280;66206;0.000;0.000;2023-06-26T01:29:10;97867.20;;;28.90;26.00
77212;BME280;66206;0.000;0.000;2023-06-26T01:31:38;97865.97;;;28.71;26.05
77212;BME280;66206;0.000;0.000;2023-06-26T01:34:05;97863.94;;;28.74;26.02
77212;BME280;66206;0.000;0.000;2023-06-26T01:36:32;97862.85;;;28.79;25.96
77212;BME280;66206;0.000;0.000;2023-06-26T01:38:59;97859.93;;;28.80;25.96
77212;BME280;66206;0.000;0.000;2023-06-26T01:41:25;97858.71;;;28.65;26.01
77212;BME280;66206;0.000;0.000;2023-06-26T01:44:11;97856.19;;;28.83;25.88
77212;BME280;66206;0.000;0.000;2023-06-26T01:46:18;97854.99;;;28.80;25.89
77212;BME280;66206;0.000;0.000;2023-06-26T01:48:50;97854.83;;;28.74;25.83
77212;BME280;66206;0.000;0.000;2023-06-26T01:51:14;97854.00;;;28.75;25.89
77212;BME280;66206;0.000;0.000;2023-06-26T01:53:43;97851.09;;;28.67;25.91
77212;BME280;66206;0.000;0.000;2023-06-26T01:56:12;97852.89;;;28.85;25.84
77212;BME280;66206;0.000;0.000;2023-06-26T01:58:39;97852.08;;;28.68;25.90
77212;BME280;66206;0.000;0.000;2023-06-26T02:01:07;97851.92;;;28.83;25.85
77212;BME280;66206;0.000;0.000;2023-06-26T02:03:33;97845.51;;;28.61;25.88
77212;BME280;66206;0.000;0.000;2023-06-26T02:06:00;97845.75;;;28.73;25.83
77212;BME280;66206;0.000;0.000;2023-06-26T02:08:27;97845.09;;;28.69;25.78
77212;BME280;66206;0.000;0.000;2023-06-26T02:10:53;97845.48;;;28.68;25.77
77212;BME280;66206;0.000;0.000;2023-06-26T02:13:20;97846.51;;;28.70;25.81
77212;BME280;66206;0.000;0.000;2023-06-26T02:15:46;97845.93;;;28.75;25.76
77212;BME280;66206;0.000;0.000;2023-06-26T02:18:13;97845.18;;;28.50;25.76
77212;BME280;66206;0.000;0.000;2023-06-26T02:20:40;97842.60;;;28.63;25.92
77212;BME280;66206;0.000;0.000;2023-06-26T02:23:06;97842.18;;;28.49;25.87
77212;BME280;66206;0.000;0.000;2023-06-26T02:25:33;97845.28;;;28.62;25.88
77212;BME280;66206;0.000;0.000;2023-06-26T02:27:59;97845.87;;;28.57;25.99
77212;BME280;66206;0.000;0.000;2023-06-26T02:30:26;97847.60;;;28.57;25.93
77212;BME280;66206;0.000;0.000;2023-06-26T02:32:53;97851.08;;;28.64;25.92
77212;BME280;66206;0.000;0.000;2023-06-26T02:35:19;97851.34;;;28.71;25.89
77212;BME280;66206;0.000;0.000;2023-06-26T02:37:46;97853.47;;;28.57;25.99
77212;BME280;66206;0.000;0.000;2023-06-26T02:40:12;97849.56;;;28.60;25.97
77212;BME280;66206;0.000;0.000;2023-06-26T02:42:39;97849.46;;;28.69;25.93
77212;BME280;66206;0.000;0.000;2023-06-26T02:45:06;97851.74;;;28.55;25.98
77212;BME280;66206;0.000;0.000;2023-06-26T02:47:33;97850.51;;;28.64;25.95
77212;BME280;66206;0.000;0.000;2023-06-26T02:49:59;97850.63;;;28.67;25.92
77212;BME280;66206;0.000;0.000;2023-06-26T02:52:26;97850.01;;;28.72;25.94
77212;BME280;66206;0.000;0.000;2023-06-26T02:54:53;97847.83;;;28.58;25.95
77212;BME280;66206;0.000;0.000;2023-06-26T02:57:19;97844.54;;;28.59;26.00
77212;BME280;66206;0.000;0.000;2023-06-26T02:59:46;97845.17;;;28.60;25.92
77212;BME280;66206;0.000;0.000;2023-06-26T03:02:12;97844.55;;;28.45;25.91
77212;BME280;66206;0.000;0.000;2023-06-26T03:04:39;97843.98;;;28.65;25.91
77212;BME280;66206;0.000;0.000;2023-06-26T03:07:06;97841.86;;;28.43;26.10
77212;BME280;66206;0.000;0.000;2023-06-26T03:09:32;97840.47;;;28.61;26.08
77212;BME280;66206;0.000;0.000;2023-06-26T03:11:59;97837.19;;;28.55;26.08
77212;BME280;66206;0.000;0.000;2023-06-26T03:14:25;97838.74;;;28.63;26.03
77212;BME280;66206;0.000;0.000;2023-06-26T03:16:52;97839.47;;;28.51;26.15
77212;BME280;66206;0.000;0.000;2023-06-26T03:19:18;97841.64;;;28.46;26.09
77212;BME280;66206;0.000;0.000;2023-06-26T03:21:45;97840.65;;;28.56;26.06
77212;BME280;66206;0.000;0.000;2023-06-26T03:24:12;97840.67;;;28.54;26.01
77212;BME280;66206;0.000;0.000;2023-06-26T03:26:38;97841.98;;;28.55;26.02
77212;BME280;66206;0.000;0.000;2023-06-26T03:29:05;97841.33;;;28.53;26.03
77212;BME280;66206;0.000;0.000;2023-06-26T03:31:31;97838.79;;;28.54;26.01
77212;BME280;66206;0.000;0.000;2023-06-26T03:33:58;97837.02;;;28.52;26.01
77212;BME280;66206;0.000;0.000;2023-06-26T03:36:25;97836.20;;;28.54;25.95
77212;BME280;66206;0.000;0.000;2023-06-26T03:38:51;97839.35;;;28.49;26.01
77212;BME280;66206;0.000;0.000;2023-06-26T03:41:18;97837.10;;;28.45;25.94
77212;BME280;66206;0.000;0.000;2023-06-26T03:43:44;97840.67;;;28.55;25.91
77212;BME280;66206;0.000;0.000;2023-06-26T03:46:11;97843.72;;;28.50;25.92
77212;BME280;66206;0.000;0.000;2023-06-26T03:48:38;97844.77;;;28.48;25.93
77212;BME280;66206;0.000;0.000;2023-06-26T03:51:04;97843.30;;;28.38;25.96
77212;BME280;66206;0.000;0.000;2023-06-26T03:53:31;97837.02;;;28.51;25.94
77212;BME280;66206;0.000;0.000;2023-06-26T03:55:57;97838.78;;;28.33;25.97
77212;BME280;66206;0.000;0.000;2023-06-26T03:58:24;97836.49;;;28.47;25.88
77212;BME280;66206;0.000;0.000;2023-06-26T04:00:50;97835.88;;;28.59;25.80
77212;BME280;66206;0.000;0.000;2023-06-26T04:03:17;97835.62;;;28.45;25.89
77212;BME280;66206;0.000;0.000;2023-06-26T04:05:44;97840.32;;;28.49;25.82
77212;BME280;66206;0.000;0.000;2023-06-26T04:08:10;97842.97;;;28.56;25.80
77212;BME280;66206;0.000;0.000;2023-06-26T04:10:37;97840.86;;;28.49;25.75
77212;BME280;66206;0.000;0.000;2023-06-26T04:13:03;97839.13;;;28.48;25.75
77212;BME280;66206;0.000;0.000;2023-06-26T04:15:30;97836.62;;;28.54;25.74
77212;BME280;66206;0.000;0.000;2023-06-26T04:17:56;97838.03;;;28.38;25.85
77212;BME280;66206;0.000;0.000;2023-06-26T04:20:23;97834.60;;;28.37;25.89
77212;BME280;66206;0.000;0.000;2023-06-26T04:22:50;97834.25;;;28.45;25.75
77212;BME280;66206;0.000;0.000;2023-06-26T04:25:16;97834.45;;;28.33;25.86
77212;BME280;66206;0.000;0.000;2023-06-26T04:27:43;97833.85;;;28.43;25.74
77212;BME280;66206;0.000;0.000;2023-06-26T04:30:10;97835.67;;;28.27;25.79
77212;BME280;66206;0.000;0.000;2023-06-26T04:32:37;97840.39;;;28.44;25.68
77212;BME280;66206;0.000;0.000;2023-06-26T04:35:03;97844.66;;;28.37;25.69
77212;BME280;66206;0.000;0.000;2023-06-26T04:37:30;97844.19;;;28.42;25.64
77212;BME280;66206;0.000;0.000;2023-06-26T04:39:57;97841.42;;;28.27;25.74
77212;BME280;66206;0.000;0.000;2023-06-26T04:42:23;97841.85;;;28.25;25.76
77212;BME280;66206;0.000;0.000;2023-06-26T04:44:50;97843.44;;;28.23;25.78
77212;BME280;66206;0.000;0.000;2023-06-26T04:47:16;97843.09;;;28.29;25.70
77212;BME280;66206;0.000;0.000;2023-06-26T04:49:43;97839.47;;;28.33;25.69
77212;BME280;66206;0.000;0.000;2023-06-26T04:52:09;97840.19;;;28.23;25.72
77212;BME280;66206;0.000;0.000;2023-06-26T04:54:36;97838.82;;;28.33;25.71
77212;BME280;66206;0.000;0.000;2023-06-26T04:57:03;97835.05;;;28.23;25.75
77212;BME280;66206;0.000;0.000;2023-06-26T04:59:29;97833.76;;;28.26;25.77
77212;BME280;66206;0.000;0.000;2023-06-26T05:01:56;97833.12;;;28.24;25.70
77212;BME280;66206;0.000;0.000;2023-06-26T05:04:22;97835.87;;;28.17;25.72
77212;BME280;66206;0.000;0.000;2023-06-26T05:06:49;97837.55;;;28.25;25.73
77212;BME280;66206;0.000;0.000;2023-06-26T05:09:16;97836.99;;;28.18;25.76
77212;BME280;66206;0.000;0.000;2023-06-26T05:11:42;97841.69;;;28.34;25.70
77212;BME280;66206;0.000;0.000;2023-06-26T05:14:09;97842.31;;;28.44;25.65
77212;BME280;66206;0.000;0.000;2023-06-26T05:16:35;97842.33;;;28.31;25.66
77212;BME280;66206;0.000;0.000;2023-06-26T05:19:02;97840.82;;;28.43;25.65
77212;BME280;66206;0.000;0.000;2023-06-26T05:21:29;97835.94;;;28.35;25.73
77212;BME280;66206;0.000;0.000;2023-06-26T05:23:56;97835.22;;;28.26;25.74
77212;BME280;66206;0.000;0.000;2023-06-26T05:26:23;97832.35;;;28.32;25.68
77212;BME280;66206;0.000;0.000;2023-06-26T05:28:50;97830.76;;;28.38;25.64
77212;BME280;66206;0.000;0.000;2023-06-26T05:31:17;97830.43;;;28.32;25.65
77212;BME280;66206;0.000;0.000;2023-06-26T05:33:44;97831.01;;;28.35;25.64
77212;BME280;66206;0.000;0.000;2023-06-26T05:36:11;97827.58;;;28.37;25.67
77212;BME280;66206;0.000;0.000;2023-06-26T05:38:39;97824.86;;;28.30;25.67
77212;BME280;66206;0.000;0.000;2023-06-26T05:41:06;97821.33;;;28.47;25.61
77212;BME280;66206;0.000;0.000;2023-06-26T05:43:32;97820.87;;;28.39;25.60
77212;BME280;66206;0.000;0.000;2023-06-26T05:45:59;97820.67;;;28.42;25.59
77212;BME280;66206;0.000;0.000;2023-06-26T05:48:26;97820.15;;;28.35;25.66
77212;BME280;66206;0.000;0.000;2023-06-26T05:50:52;97818.48;;;28.30;25.63
77212;BME280;66206;0.000;0.000;2023-06-26T05:53:19;97816.01;;;28.31;25.60
77212;BME280;66206;0.000;0.000;2023-06-26T05:55:46;97813.64;;;28.29;25.57
77212;BME280;66206;0.000;0.000;2023-06-26T05:58:13;97812.44;;;28.17;25.62
77212;BME280;66206;0.000;0.000;2023-06-26T06:00:41;97811.27;;;28.37;25.43
77212;BME280;66206;0.000;0.000;2023-06-26T06:03:09;97808.97;;;28.32;25.42
77212;BME280;66206;0.000;0.000;2023-06-26T06:05:35;97811.42;;;28.55;25.29
77212;BME280;66206;0.000;0.000;2023-06-26T06:08:02;97810.72;;;28.32;25.37
77212;BME280;66206;0.000;0.000;2023-06-26T06:10:29;97811.47;;;28.39;25.34
77212;BME280;66206;0.000;0.000;2023-06-26T06:12:55;97809.13;;;28.49;25.25
77212;BME280;66206;0.000;0.000;2023-06-26T06:15:22;97810.50;;;28.64;25.15
77212;BME280;66206;0.000;0.000;2023-06-26T06:17:48;97809.43;;;28.63;25.22
77212;BME280;66206;0.000;0.000;2023-06-26T06:20:15;97806.01;;;28.50;25.25
77212;BME280;66206;0.000;0.000;2023-06-26T06:22:42;97807.60;;;28.64;25.17
77212;BME280;66206;0.000;0.000;2023-06-26T06:25:08;97808.17;;;28.65;25.10
77212;BME280;66206;0.000;0.000;2023-06-26T06:27:35;97808.16;;;28.52;25.05
77212;BME280;66206;0.000;0.000;2023-06-26T06:30:02;97810.59;;;28.54;24.99
77212;BME280;66206;0.000;0.000;2023-06-26T06:32:29;97812.69;;;28.70;24.84
77212;BME280;66206;0.000;0.000;2023-06-26T06:34:55;97813.86;;;28.72;24.83
77212;BME280;66206;0.000;0.000;2023-06-26T06:37:22;97814.92;;;28.73;24.74
77212;BME280;66206;0.000;0.000;2023-06-26T06:39:48;97811.78;;;28.78;24.64
77212;BME280;66206;0.000;0.000;2023-06-26T06:42:15;97804.77;;;28.49;24.58
77212;BME280;66206;0.000;0.000;2023-06-26T06:44:41;97802.89;;;28.48;24.51
77212;BME280;66206;0.000;0.000;2023-06-26T06:47:08;97804.47;;;28.74;24.46
77212;BME280;66206;0.000;0.000;2023-06-26T06:49:35;97807.11;;;28.84;24.35
77212;BME280;66206;0.000;0.000;2023-06-26T06:52:01;97804.97;;;28.67;24.25
77212;BME280;66206;0.000;0.000;2023-06-26T06:54:28;97803.38;;;28.79;24.00
77212;BME280;66206;0.000;0.000;2023-06-26T06:56:54;97799.63;;;28.59;23.94
77212;BME280;66206;0.000;0.000;2023-06-26T06:59:21;97797.86;;;28.48;24.20
77212;BME280;66206;0.000;0.000;2023-06-26T07:01:47;97798.22;;;28.61;24.09
77212;BME280;66206;0.000;0.000;2023-06-26T07:04:14;97802.71;;;28.74;24.09
77212;BME280;66206;0.000;0.000;2023-06-26T07:06:41;97801.69;;;28.93;23.91
77212;BME280;66206;0.000;0.000;2023-06-26T07:09:08;97799.93;;;29.35;23.67
77212;BME280;66206;0.000;0.000;2023-06-26T07:11:35;97795.74;;;29.45;23.63
77212;BME280;66206;0.000;0.000;2023-06-26T07:14:02;97795.25;;;29.48;23.58
77212;BME280;66206;0.000;0.000;2023-06-26T07:16:29;97798.18;;;29.31;23.53
77212;BME280;66206;0.000;0.000;2023-06-26T07:18:56;97793.57;;;29.48;23.54
77212;BME280;66206;0.000;0.000;2023-06-26T07:21:23;97791.39;;;29.40;23.68
77212;BME280;66206;0.000;0.000;2023-06-26T07:23:49;97790.56;;;28.88;24.25
77212;BME280;66206;0.000;0.000;2023-06-26T07:26:16;97783.35;;;29.38;23.85
77212;BME280;66206;0.000;0.000;2023-06-26T07:28:43;97781.32;;;29.39;24.11
77212;BME280;66206;0.000;0.000;2023-06-26T07:31:10;97788.38;;;29.10;24.50
77212;BME280;66206;0.000;0.000;2023-06-26T07:33:37;97786.86;;;29.15;24.33
77212;BME280;66206;0.000;0.000;2023-06-26T07:36:04;97781.82;;;29.19;24.16
77212;BME280;66206;0.000;0.000;2023-06-26T07:38:31;97778.48;;;29.37;24.14
77212;BME280;66206;0.000;0.000;2023-06-26T07:40:57;97784.72;;;29.77;23.53
77212;BME280;66206;0.000;0.000;2023-06-26T07:43:24;97781.21;;;29.36;23.80
77212;BME280;66206;0.000;0.000;2023-06-26T07:45:51;97783.31;;;28.92;24.18
77212;BME280;66206;0.000;0.000;2023-06-26T07:48:18;97781.52;;;29.29;23.85
77212;BME280;66206;0.000;0.000;2023-06-26T07:50:45;97783.23;;;29.15;24.19
77212;BME280;66206;0.000;0.000;2023-06-26T07:53:12;97786.59;;;28.94;24.66
77212;BME280;66206;0.000;0.000;2023-06-26T07:55:39;97781.85;;;29.19;24.20
77212;BME280;66206;0.000;0.000;2023-06-26T07:58:06;97779.89;;;29.15;24.21
77212;BME280;66206;0.000;0.000;2023-06-26T08:00:34;97775.87;;;29.21;24.05
77212;BME280;66206;0.000;0.000;2023-06-26T08:03:00;97772.57;;;29.28;24.14
77212;BME280;66206;0.000;0.000;2023-06-26T08:05:27;97768.30;;;28.94;24.24
77212;BME280;66206;0.000;0.000;2023-06-26T08:07:54;97768.47;;;29.10;24.22
77212;BME280;66206;0.000;0.000;2023-06-26T08:10:21;97769.77;;;29.43;24.10
77212;BME280;66206;0.000;0.000;2023-06-26T08:12:48;97769.64;;;29.64;24.09
77212;BME280;66206;0.000;0.000;2023-06-26T08:15:15;97764.82;;;29.46;23.83
77212;BME280;66206;0.000;0.000;2023-06-26T08:17:41;97765.77;;;29.02;24.21
77212;BME280;66206;0.000;0.000;2023-06-26T08:20:09;97761.57;;;29.32;23.90
77212;BME280;66206;0.000;0.000;2023-06-26T08:22:36;97763.39;;;29.15;24.17
77212;BME280;66206;0.000;0.000;2023-06-26T08:25:03;97757.11;;;29.27;24.20
77212;BME280;66206;0.000;0.000;2023-06-26T08:27:30;97756.99;;;29.38;24.14
77212;BME280;66206;0.000;0.000;2023-06-26T08:29:57;97752.80;;;29.21;24.01
77212;BME280;66206;0.000;0.000;2023-06-26T08:32:24;97749.87;;;29.24;23.96
77212;BME280;66206;0.000;0.000;2023-06-26T08:34:51;97748.64;;;29.52;23.77
77212;BME280;66206;0.000;0.000;2023-06-26T08:37:18;97745.63;;;29.58;23.80
77212;BME280;66206;0.000;0.000;2023-06-26T08:39:45;97743.23;;;29.70;23.62
77212;BME280;66206;0.000;0.000;2023-06-26T08:42:12;97742.32;;;29.28;24.15
77212;BME280;66206;0.000;0.000;2023-06-26T08:44:39;97744.75;;;29.26;24.16
77212;BME280;66206;0.000;0.000;2023-06-26T08:47:05;97749.25;;;29.55;23.75
77212;BME280;66206;0.000;0.000;2023-06-26T08:49:37;97748.90;;;29.40;24.04
77212;BME280;66206;0.000;0.000;2023-06-26T08:52:00;97745.57;;;29.45;24.07
77212;BME280;66206;0.000;0.000;2023-06-26T08:54:30;97747.32;;;29.35;24.03
77212;BME280;66206;0.000;0.000;2023-06-26T08:56:55;97746.83;;;29.24;24.32
77212;BME280;66206;0.000;0.000;2023-06-26T08:59:22;97747.11;;;29.78;23.69
77212;BME280;66206;0.000;0.000;2023-06-26T09:01:49;97741.93;;;29.95;23.48
77212;BME280;66206;0.000;0.000;2023-06-26T09:04:16;97739.02;;;30.02;23.35
77212;BME280;66206;0.000;0.000;2023-06-26T09:06:43;97740.75;;;29.94;23.55
77212;BME280;66206;0.000;0.000;2023-06-26T09:09:11;97739.11;;;29.49;24.14
77212;BME280;66206;0.000;0.000;2023-06-26T09:11:37;97738.12;;;29.56;24.18
77212;BME280;66206;0.000;0.000;2023-06-26T09:14:04;97734.78;;;29.86;23.95
77212;BME280;66206;0.000;0.000;2023-06-26T09:16:32;97736.21;;;29.53;24.42
77212;BME280;66206;0.000;0.000;2023-06-26T09:18:58;97735.81;;;29.24;24.60
77212;BME280;66206;0.000;0.000;2023-06-26T09:21:25;97732.62;;;29.32;24.47
77212;BME280;66206;0.000;0.000;2023-06-26T09:23:52;97729.24;;;29.39;24.62
77212;BME280;66206;0.000;0.000;2023-06-26T09:26:19;97726.52;;;30.14;23.67
77212;BME280;66206;0.000;0.000;2023-06-26T09:28:47;97729.90;;;29.68;24.10
77212;BME280;66206;0.000;0.000;2023-06-26T09:31:15;97730.41;;;29.54;24.04
77212;BME280;66206;0.000;0.000;2023-06-26T09:33:43;97724.62;;;29.66;24.03
77212;BME280;66206;0.000;0.000;2023-06-26T09:36:18;97725.28;;;29.65;23.85
77212;BME280;66206;0.000;0.000;2023-06-26T09:38:35;97727.71;;;29.56;23.73
77212;BME280;66206;0.000;0.000;2023-06-26T09:41:02;97727.76;;;29.83;22.94
77212;BME280;66206;0.000;0.000;2023-06-26T09:43:29;97726.66;;;30.03;22.62
77212;BME280;66206;0.000;0.000;2023-06-26T09:45:56;97726.84;;;29.59;22.77
77212;BME280;66206;0.000;0.000;2023-06-26T09:48:23;97723.58;;;29.86;22.31
77212;BME280;66206;0.000;0.000;2023-06-26T09:50:50;97720.21;;;29.53;22.57
77212;BME280;66206;0.000;0.000;2023-06-26T09:53:16;97723.08;;;30.38;22.03
77212;BME280;66206;0.000;0.000;2023-06-26T09:55:43;97719.89;;;30.04;22.64
77212;BME280;66206;0.000;0.000;2023-06-26T09:58:10;97717.57;;;29.87;22.81
77212;BME280;66206;0.000;0.000;2023-06-26T10:00:37;97714.02;;;30.04;22.60
77212;BME280;66206;0.000;0.000;2023-06-26T10:03:04;97712.80;;;30.26;22.19
77212;BME280;66206;0.000;0.000;2023-06-26T10:05:31;97716.49;;;30.03;21.94
77212;BME280;66206;0.000;0.000;2023-06-26T10:07:58;97717.14;;;30.03;21.74
77212;BME280;66206;0.000;0.000;2023-06-26T10:10:25;97715.43;;;29.81;21.74
77212;BME280;66206;0.000;0.000;2023-06-26T10:12:54;97706.98;;;29.87;21.35
77212;BME280;66206;0.000;0.000;2023-06-26T10:15:19;97712.94;;;29.53;21.71
77212;BME280;66206;0.000;0.000;2023-06-26T10:17:47;97713.87;;;29.56;21.77
77212;BME280;66206;0.000;0.000;2023-06-26T10:20:14;97710.75;;;30.06;21.23
77212;BME280;66206;0.000;0.000;2023-06-26T10:22:44;97707.72;;;29.46;21.70
77212;BME280;66206;0.000;0.000;2023-06-26T10:25:11;97711.53;;;29.29;21.98
77212;BME280;66206;0.000;0.000;2023-06-26T10:27:40;97705.73;;;29.81;21.56
77212;BME280;66206;0.000;0.000;2023-06-26T10:30:09;97701.77;;;29.82;21.67
77212;BME280;66206;0.000;0.000;2023-06-26T10:32:38;97700.64;;;30.42;21.18
77212;BME280;66206;0.000;0.000;2023-06-26T10:35:07;97697.99;;;30.06;21.34
77212;BME280;66206;0.000;0.000;2023-06-26T10:37:41;97699.23;;;29.89;22.25
77212;BME280;66206;0.000;0.000;2023-06-26T10:40:03;97695.92;;;30.27;21.54
77212;BME280;66206;0.000;0.000;2023-06-26T10:42:34;97698.31;;;30.22;21.61
77212;BME280;66206;0.000;0.000;2023-06-26T10:44:56;97698.90;;;30.04;21.66
77212;BME280;66206;0.000;0.000;2023-06-26T10:47:32;97701.40;;;30.09;21.50
77212;BME280;66206;0.000;0.000;2023-06-26T10:49:53;97705.36;;;29.80;21.78
77212;BME280;66206;0.000;0.000;2023-06-26T10:52:20;97700.87;;;29.75;22.05
77212;BME280;66206;0.000;0.000;2023-06-26T10:54:47;97699.53;;;29.46;22.28
77212;BME280;66206;0.000;0.000;2023-06-26T10:57:14;97695.25;;;29.90;21.92
77212;BME280;66206;0.000;0.000;2023-06-26T10:59:39;97700.38;;;30.01;21.31
77212;BME280;66206;0.000;0.000;2023-06-26T11:02:06;97700.37;;;30.47;20.89
77212;BME280;66206;0.000;0.000;2023-06-26T11:04:36;97696.49;;;31.48;19.96
77212;BME280;66206;0.000;0.000;2023-06-26T11:07:13;97699.89;;;30.64;20.57
77212;BME280;66206;0.000;0.000;2023-06-26T11:09:25;97697.97;;;31.07;20.23
77212;BME280;66206;0.000;0.000;2023-06-26T11:11:55;97698.26;;;30.48;20.79
77212;BME280;66206;0.000;0.000;2023-06-26T11:14:18;97698.14;;;30.51;20.74
77212;BME280;66206;0.000;0.000;2023-06-26T11:16:44;97694.87;;;30.78;19.76
77212;BME280;66206;0.000;0.000;2023-06-26T11:19:13;97691.65;;;31.04;19.28
77212;BME280;66206;0.000;0.000;2023-06-26T11:21:40;97692.08;;;31.14;19.25
77212;BME280;66206;0.000;0.000;2023-06-26T11:24:07;97687.65;;;31.20;19.33
77212;BME280;66206;0.000;0.000;2023-06-26T11:26:37;97691.44;;;31.33;19.20
77212;BME280;66206;0.000;0.000;2023-06-26T11:29:06;97685.14;;;31.64;19.16
77212;BME280;66206;0.000;0.000;2023-06-26T11:31:33;97693.38;;;30.90;19.83
77212;BME280;66206;0.000;0.000;2023-06-26T11:34:01;97696.31;;;30.84;19.68
77212;BME280;66206;0.000;0.000;2023-06-26T11:36:28;97694.89;;;30.79;19.62
77212;BME280;66206;0.000;0.000;2023-06-26T11:38:55;97691.81;;;30.50;20.42
77212;BME280;66206;0.000;0.000;2023-06-26T11:41:22;97696.22;;;30.49;20.41
77212;BME280;66206;0.000;0.000;2023-06-26T11:43:50;97692.42;;;30.86;20.22
77212;BME280;66206;0.000;0.000;2023-06-26T11:46:19;97685.97;;;31.10;19.54
77212;BME280;66206;0.000;0.000;2023-06-26T11:48:47;97684.17;;;31.31;19.44
77212;BME280;66206;0.000;0.000;2023-06-26T11:51:14;97683.92;;;30.96;19.82
77212;BME280;66206;0.000;0.000;2023-06-26T11:53:41;97687.21;;;31.55;19.34
77212;BME280;66206;0.000;0.000;2023-06-26T11:56:09;97673.56;;;31.18;19.49
77212;BME280;66206;0.000;0.000;2023-06-26T11:58:36;97658.79;;;31.06;19.36
77212;BME280;66206;0.000;0.000;2023-06-26T12:01:02;97683.15;;;30.71;19.56
77212;BME280;66206;0.000;0.000;2023-06-26T12:03:29;97681.40;;;30.75;19.45
77212;BME280;66206;0.000;0.000;2023-06-26T12:05:58;97678.89;;;30.47;19.78
77212;BME280;66206;0.000;0.000;2023-06-26T12:08:25;97668.71;;;30.24;20.18
77212;BME280;66206;0.000;0.000;2023-06-26T12:10:52;97668.93;;;30.60;19.78
77212;BME280;66206;0.000;0.000;2023-06-26T12:13:19;97675.36;;;31.27;19.23
77212;BME280;66206;0.000;0.000;2023-06-26T12:15:46;97678.24;;;30.76;19.88
77212;BME280;66206;0.000;0.000;2023-06-26T12:18:13;97677.83;;;31.20;19.41
77212;BME280;66206;0.000;0.000;2023-06-26T12:20:40;97667.42;;;30.81;19.37
77212;BME280;66206;0.000;0.000;2023-06-26T12:23:11;97668.44;;;30.55;20.07
77212;BME280;66206;0.000;0.000;2023-06-26T12:25:33;97665.91;;;31.30;19.26
77212;BME280;66206;0.000;0.000;2023-06-26T12:28:00;97666.32;;;31.47;19.06
77212;BME280;66206;0.000;0.000;2023-06-26T12:30:27;97663.78;;;31.31;19.37
77212;BME280;66206;0.000;0.000;2023-06-26T12:32:54;97663.05;;;31.41;19.19
77212;BME280;66206;0.000;0.000;2023-06-26T12:35:21;97666.13;;;31.29;19.11
77212;BME280;66206;0.000;0.000;2023-06-26T12:37:48;97663.65;;;31.34;19.16
77212;BME280;66206;0.000;0.000;2023-06-26T12:40:16;97659.20;;;31.19;19.08
77212;BME280;66206;0.000;0.000;2023-06-26T12:42:44;97660.44;;;30.88;19.36
77212;BME280;66206;0.000;0.000;2023-06-26T12:45:12;97653.64;;;31.51;19.05
77212;BME280;66206;0.000;0.000;2023-06-26T12:47:40;97655.70;;;31.80;19.96
77212;BME280;66206;0.000;0.000;2023-06-26T12:50:07;97656.48;;;31.57;20.35
77212;BME280;66206;0.000;0.000;2023-06-26T12:52:34;97651.90;;;31.27;21.10
77212;BME280;66206;0.000;0.000;2023-06-26T12:55:00;97652.36;;;31.76;21.20
77212;BME280;66206;0.000;0.000;2023-06-26T12:57:27;97642.54;;;31.27;21.41
77212;BME280;66206;0.000;0.000;2023-06-26T12:59:54;97645.08;;;31.18;21.65
77212;BME280;66206;0.000;0.000;2023-06-26T13:02:21;97642.47;;;31.42;21.79
77212;BME280;66206;0.000;0.000;2023-06-26T13:04:48;97640.26;;;31.40;21.23
77212;BME280;66206;0.000;0.000;2023-06-26T13:07:15;97639.37;;;31.40;21.24